createdAt,value
2023-04-22T00:02:49.028Z,101517.50
2023-04-22T00:05:52.206Z,101514.69
2023-04-22T00:08:56.542Z,101512.09
2023-04-22T00:11:59.747Z,101510.41
2023-04-22T00:15:02.966Z,101509.66
2023-04-22T00:18:07.349Z,101508.06
2023-04-22T00:21:10.312Z,101499.34
2023-04-22T00:24:14.590Z,101502.00
2023-04-22T00:27:17.523Z,101502.09
2023-04-22T00:30:20.417Z,101501.28
2023-04-22T00:33:23.322Z,101496.78
2023-04-22T00:36:27.830Z,101496.84
2023-04-22T00:39:32.403Z,101494.25
2023-04-22T00:42:36.020Z,101488.13
2023-04-22T00:45:39.094Z,101484.56
2023-04-22T00:48:42.805Z,101484.66
2023-04-22T00:51:45.866Z,101484.69
2023-04-22T00:54:50.403Z,101484.75
2023-04-22T00:57:53.382Z,101477.75
2023-04-22T01:00:56.580Z,101480.38
2023-04-22T01:04:01.062Z,101486.63
2023-04-22T01:07:04.455Z,101488.47
2023-04-22T01:10:09.853Z,101474.28
2023-04-22T01:13:12.720Z,101475.16
2023-04-22T01:16:15.861Z,101483.22
2023-04-22T01:19:19.723Z,101474.41
2023-04-22T01:22:23.974Z,101470.88
2023-04-22T01:25:28.308Z,101473.53
2023-04-22T01:28:32.270Z,101468.22
2023-04-22T01:31:35.597Z,101470.94
2023-04-22T01:34:40.397Z,101474.41
2023-04-22T01:37:43.330Z,101462.88
2023-04-22T01:40:47.678Z,101469.88
2023-04-22T01:43:51.156Z,101468.94
2023-04-22T01:46:54.032Z,101468.06
2023-04-22T01:49:56.960Z,101468.06
2023-04-22T01:53:00.266Z,101454.75
2023-04-22T01:56:04.875Z,101451.22
2023-04-22T01:59:08.018Z,101448.59
2023-04-22T02:02:12.840Z,101451.53
2023-04-22T02:05:16.091Z,101447.97
2023-04-22T02:08:46.915Z,101448.84
2023-04-22T02:11:52.490Z,101446.16
2023-04-22T02:14:57.409Z,101437.13
2023-04-22T02:18:02.175Z,101440.69
2023-04-22T02:21:05.242Z,101438.00
2023-04-22T02:24:08.379Z,101441.56
2023-04-22T02:27:12.644Z,101425.56
2023-04-22T02:30:16.111Z,101430.91
2023-04-22T02:33:19.055Z,101416.69
2023-04-22T02:36:21.988Z,101423.81
2023-04-22T02:39:25.100Z,101415.16
2023-04-22T02:42:29.441Z,101412.59
2023-04-22T02:45:32.472Z,101408.22
2023-04-22T02:48:35.359Z,101399.28
2023-04-22T02:51:40.098Z,101402.75
2023-04-22T02:54:43.200Z,101397.41
2023-04-22T02:57:47.604Z,101400.88
2023-04-22T03:00:50.620Z,101388.38
2023-04-22T03:03:53.923Z,101393.69
2023-04-22T03:06:59.931Z,101391.97
2023-04-22T03:10:05.089Z,101391.03
2023-04-22T03:13:09.474Z,101385.69
2023-04-22T03:16:13.447Z,101393.75
2023-04-22T03:19:17.826Z,101392.00
2023-04-22T03:22:22.568Z,101392.97
2023-04-22T03:25:27.862Z,101388.56
2023-04-22T03:28:34.583Z,101387.75
2023-04-22T03:31:38.145Z,101389.50
2023-04-22T03:34:41.149Z,101390.31
2023-04-22T03:37:45.787Z,101388.56
2023-04-22T03:40:53.144Z,101385.06
2023-04-22T03:44:08.101Z,101393.94
2023-04-22T03:47:12.444Z,101397.56
2023-04-22T03:50:21.968Z,101392.22
2023-04-22T03:53:27.238Z,101393.94
2023-04-22T03:56:30.580Z,101386.91
2023-04-22T03:59:38.011Z,101393.06
2023-04-22T04:02:42.777Z,101392.16
2023-04-22T04:05:50.938Z,101392.16
2023-04-22T04:08:53.955Z,101393.84
2023-04-22T04:11:58.124Z,101402.63
2023-04-22T04:15:09.974Z,101399.97
2023-04-22T04:18:16.247Z,101393.69
2023-04-22T04:21:19.477Z,101391.00
2023-04-22T04:24:26.330Z,101398.91
2023-04-22T04:27:36.152Z,101397.13
2023-04-22T04:30:41.737Z,101389.97
2023-04-22T04:33:44.874Z,101389.94
2023-04-22T04:36:47.878Z,101393.44
2023-04-22T04:40:00.002Z,101396.09
2023-04-22T04:43:12.982Z,101390.78
2023-04-22T04:46:24.268Z,101393.44
2023-04-22T04:49:30.759Z,101400.53
2023-04-22T04:52:36.310Z,101400.53
2023-04-22T04:55:40.096Z,101399.59
2023-04-22T04:58:49.635Z,101403.97
2023-04-22T05:01:57.606Z,101397.78
2023-04-22T05:05:00.807Z,101401.31
2023-04-22T05:08:04.877Z,101403.13
2023-04-22T05:11:10.971Z,101401.31
2023-04-22T05:14:15.023Z,101403.97
2023-04-22T05:17:21.213Z,101406.66
2023-04-22T05:20:25.099Z,101398.72
2023-04-22T05:23:28.079Z,101399.53
2023-04-22T05:26:34.575Z,101395.06
2023-04-22T05:29:43.310Z,101390.66
2023-04-22T05:32:49.749Z,101387.06
2023-04-22T05:35:52.763Z,101387.13
2023-04-22T05:38:56.639Z,101391.59
2023-04-22T05:59:22.311Z,101383.66
2023-04-22T06:02:26.352Z,101386.28
2023-04-22T06:05:29.498Z,101386.28
2023-04-22T06:08:33.656Z,101380.88
2023-04-22T06:11:36.581Z,101391.53
2023-04-22T06:14:40.924Z,101386.19
2023-04-22T06:17:44.333Z,101389.75
2023-04-22T06:20:47.295Z,101392.44
2023-04-22T06:23:51.482Z,101389.78
2023-04-22T06:26:54.671Z,101391.59
2023-04-22T06:29:59.401Z,101387.13
2023-04-22T06:33:02.496Z,101388.94
2023-04-22T06:36:06.335Z,101376.53
2023-04-22T06:39:11.184Z,101388.94
2023-04-22T06:42:35.544Z,101388.06
2023-04-22T06:45:58.386Z,101392.44
2023-04-22T06:49:14.860Z,101387.06
2023-04-22T06:52:36.300Z,101388.88
2023-04-22T06:55:39.505Z,101379.94
2023-04-22T06:58:42.390Z,101389.75
2023-04-22T07:01:46.968Z,101385.31
2023-04-22T07:04:50.134Z,101383.53
2023-04-22T07:07:53.042Z,101384.41
2023-04-22T07:10:59.285Z,101380.00
2023-04-22T07:14:10.425Z,101374.66
2023-04-22T07:17:14.697Z,101364.94
2023-04-22T07:30:50.548Z,101363.09
2023-04-22T07:33:54.816Z,101364.94
2023-04-22T07:36:57.780Z,101366.13
2023-04-22T07:40:00.704Z,101362.91
2023-04-22T07:43:05.619Z,101358.03
2023-04-22T07:46:08.578Z,101364.59
2023-04-22T07:49:16.709Z,101360.38
2023-04-22T07:52:21.008Z,101360.63
2023-04-22T07:55:23.950Z,101359.88
2023-04-22T07:58:26.903Z,101355.34
2023-04-22T08:01:29.752Z,101357.88
2023-04-22T08:04:34.110Z,101358.56
2023-04-22T08:07:37.091Z,101351.22
2023-04-22T08:10:39.947Z,101348.34
2023-04-22T08:13:42.887Z,101342.84
2023-04-22T08:16:45.782Z,101340.91
2023-04-22T08:19:50.621Z,101342.53
2023-04-22T08:22:58.114Z,101342.41
2023-04-22T08:26:01.160Z,101336.94
2023-04-22T08:29:04.741Z,101337.72
2023-04-22T08:32:07.872Z,101329.69
2023-04-22T08:35:12.341Z,101323.34
2023-04-22T08:38:15.623Z,101324.16
2023-04-22T08:48:34.419Z,101307.16
2023-04-22T08:51:39.571Z,101309.78
2023-04-22T08:54:42.613Z,101309.78
2023-04-22T08:57:46.095Z,101296.47
2023-04-22T09:00:49.560Z,101307.13
2023-04-22T09:03:54.097Z,101309.78
2023-04-22T09:06:59.965Z,101299.13
2023-04-22T09:10:02.941Z,101300.84
2023-04-22T09:13:07.682Z,101310.59
2023-04-22T09:16:11.370Z,101308.75
2023-04-22T09:19:15.029Z,101302.59
2023-04-22T09:29:20.923Z,101289.97
2023-04-22T09:33:15.736Z,101294.31
2023-04-22T09:36:22.453Z,101288.13
2023-04-22T09:39:25.866Z,101284.53
2023-04-22T09:42:28.923Z,101278.31
2023-04-22T09:45:35.359Z,101284.53
2023-04-22T09:48:43.842Z,101272.03
2023-04-22T09:51:47.666Z,101272.03
2023-04-22T09:54:52.923Z,101267.59
2023-04-22T09:57:58.262Z,101257.81
2023-04-22T10:01:03.536Z,101256.00
2023-04-22T10:04:06.640Z,101254.19
2023-04-22T10:07:09.905Z,101251.47
2023-04-22T10:10:12.844Z,101241.66
2023-04-22T10:13:15.787Z,101235.47
2023-04-22T10:16:22.386Z,101244.31
2023-04-22T10:19:27.532Z,101230.16
2023-04-22T10:22:30.957Z,101230.16
2023-04-22T10:25:33.871Z,101223.94
2023-04-22T10:28:36.718Z,101225.66
2023-04-22T10:31:41.180Z,101219.47
2023-04-22T10:34:44.419Z,101222.16
2023-04-22T10:37:49.029Z,101223.88
2023-04-22T10:41:00.846Z,101210.53
2023-04-22T10:44:08.103Z,101209.63
2023-04-22T10:47:12.555Z,101220.19
2023-04-22T10:50:22.347Z,101211.19
2023-04-22T10:53:42.736Z,101203.16
2023-04-22T10:57:03.908Z,101205.81
2023-04-22T11:00:53.050Z,101196.03
2023-04-22T11:04:23.081Z,101188.13
2023-04-22T11:07:34.798Z,101174.72
2023-04-22T11:10:44.634Z,101172.97
2023-04-22T11:13:50.745Z,101171.16
2023-04-22T11:20:25.847Z,101166.72
2023-04-22T11:23:29.669Z,101158.72
2023-04-22T11:26:37.575Z,101159.59
2023-04-22T11:30:01.358Z,101157.72
2023-04-22T11:33:04.326Z,101152.38
2023-04-22T11:36:11.304Z,101159.44
2023-04-22T11:39:16.699Z,101150.50
2023-04-22T11:42:22.730Z,101143.34
2023-04-22T11:45:26.309Z,101144.22
2023-04-22T11:48:29.163Z,101153.09
2023-04-22T11:51:33.419Z,101145.00
2023-04-22T11:54:38.139Z,101145.00
2023-04-22T11:57:41.095Z,101160.16
2023-04-22T12:00:45.415Z,101149.56
2023-04-22T12:03:50.309Z,101144.16
2023-04-22T12:06:54.811Z,101152.16
2023-04-22T12:09:57.958Z,101143.31
2023-04-22T12:13:01.901Z,101145.97
2023-04-22T12:16:06.352Z,101129.00
2023-04-22T12:19:10.046Z,101134.34
2023-04-22T12:22:14.364Z,101121.97
2023-04-22T12:25:20.499Z,101117.56
2023-04-22T12:28:23.597Z,101106.88
2023-04-22T12:31:27.233Z,101105.19
2023-04-22T12:34:30.137Z,101095.34
2023-04-22T12:37:34.557Z,101101.63
2023-04-22T12:40:37.392Z,101106.97
2023-04-22T12:43:40.414Z,101084.78
2023-04-22T12:46:43.397Z,101073.19
2023-04-22T12:49:47.537Z,101083.84
2023-04-22T12:52:52.181Z,101090.88
2023-04-22T12:55:55.355Z,101082.91
2023-04-22T12:59:03.092Z,101073.19
2023-04-22T13:02:06.144Z,101074.91
2023-04-22T13:05:10.133Z,101066.91
2023-04-22T13:08:14.355Z,101062.53
2023-04-22T13:11:17.249Z,101062.53
2023-04-22T13:14:20.422Z,101067.91
2023-04-22T13:17:23.339Z,101058.97
2023-04-22T13:20:26.219Z,101058.97
2023-04-22T13:23:30.886Z,101043.91
2023-04-22T13:26:33.959Z,101042.97
2023-04-22T13:29:37.093Z,101047.44
2023-04-22T13:32:40.023Z,101047.44
2023-04-22T13:35:43.013Z,101031.44
2023-04-22T13:38:47.251Z,101035.91
2023-04-22T13:41:50.350Z,101034.13
2023-04-22T13:44:53.210Z,101034.19
2023-04-22T13:47:56.149Z,101028.88
2023-04-22T13:50:59.002Z,101021.78
2023-04-22T13:54:03.249Z,101024.44
2023-04-22T13:57:06.361Z,101020.94
2023-04-22T14:00:10.452Z,101018.28
2023-04-22T14:03:16.083Z,101003.25
2023-04-22T14:06:19.646Z,101013.88
2023-04-22T14:09:23.963Z,101008.53
2023-04-22T14:12:26.883Z,101003.22
2023-04-22T14:15:29.761Z,100985.50
2023-04-22T14:18:36.103Z,100997.88
2023-04-22T14:21:38.989Z,100987.22
2023-04-22T14:24:43.217Z,100985.50
2023-04-22T14:27:46.222Z,100984.66
2023-04-22T14:30:49.199Z,100980.28
2023-04-22T14:33:52.089Z,100978.53
2023-04-22T14:36:55.241Z,100983.84
2023-04-22T14:39:59.461Z,100979.41
2023-04-22T14:43:04.453Z,100962.69
2023-04-22T14:46:07.544Z,100964.41
2023-04-22T14:49:10.510Z,100967.16
2023-04-22T14:52:13.472Z,100967.16
2023-04-22T14:55:23.235Z,100952.03
2023-04-22T14:58:31.318Z,100953.91
2023-04-22T15:01:34.599Z,100953.06
2023-04-22T15:04:37.563Z,100946.00
2023-04-22T15:07:40.449Z,100945.13
2023-04-22T15:10:44.758Z,100941.81
2023-04-22T15:13:47.627Z,100939.25
2023-04-22T15:16:50.589Z,100945.44
2023-04-22T15:19:57.561Z,100933.03
2023-04-22T15:23:01.856Z,100940.94
2023-04-22T15:26:06.203Z,100941.81
2023-04-22T15:29:09.056Z,100931.16
2023-04-22T15:32:12.021Z,100932.91
2023-04-22T15:35:15.046Z,100927.56
2023-04-22T15:38:18.156Z,100923.16
2023-04-22T15:41:22.360Z,100916.91
2023-04-22T15:44:25.390Z,100922.25
2023-04-22T15:47:29.385Z,100918.78
2023-04-22T15:50:32.332Z,100913.47
2023-04-22T15:53:35.187Z,100917.03
2023-04-22T15:56:39.409Z,100921.38
2023-04-22T15:59:42.446Z,100911.56
2023-04-22T16:02:46.514Z,100904.41
2023-04-22T16:05:49.513Z,100899.09
2023-04-22T16:08:52.397Z,100900.84
2023-04-22T16:11:56.942Z,100894.63
2023-04-22T16:14:59.880Z,100901.75
2023-04-22T16:18:03.244Z,100886.56
2023-04-22T16:21:06.314Z,100890.25
2023-04-22T16:24:09.252Z,100881.31
2023-04-22T16:27:16.430Z,100884.06
2023-04-22T16:30:19.909Z,100879.59
2023-04-22T16:33:22.831Z,100874.25
2023-04-22T16:36:26.108Z,100874.31
2023-04-22T16:39:29.082Z,100876.16
2023-04-22T16:42:33.344Z,100863.75
2023-04-22T16:45:36.224Z,100863.75
2023-04-22T16:48:39.136Z,100863.75
2023-04-22T16:51:42.035Z,100854.03
2023-04-22T16:54:44.895Z,100853.09
2023-04-22T16:57:50.692Z,100845.09
2023-04-22T17:00:53.802Z,100842.41
2023-04-22T17:03:57.064Z,100831.75
2023-04-22T17:07:00.140Z,100833.66
2023-04-22T17:10:03.203Z,100838.97
2023-04-22T17:13:07.469Z,100831.94
2023-04-22T17:16:11.013Z,100833.66
2023-04-22T17:19:13.978Z,100837.25
2023-04-22T17:22:16.901Z,100836.41
2023-04-22T17:25:19.957Z,100839.94
2023-04-22T17:28:24.512Z,100841.63
2023-04-22T17:31:27.550Z,100838.09
2023-04-22T17:34:30.618Z,100836.31
2023-04-22T17:37:33.714Z,100838.06
2023-04-22T17:40:36.759Z,100842.59
2023-04-22T17:43:41.617Z,100837.25
2023-04-22T17:46:44.580Z,100839.94
2023-04-22T17:49:47.553Z,100833.78
2023-04-22T17:52:50.523Z,100840.94
2023-04-22T17:55:53.342Z,100842.75
2023-04-22T17:58:57.585Z,100843.66
2023-04-22T18:02:01.627Z,100838.34
2023-04-22T18:05:05.564Z,100841.94
2023-04-22T18:08:10.340Z,100841.00
2023-04-22T18:11:13.253Z,100845.41
2023-04-22T18:14:17.572Z,100846.31
2023-04-22T18:17:20.501Z,100843.66
2023-04-22T18:20:23.428Z,100853.41
2023-04-22T18:23:26.442Z,100857.75
2023-04-22T18:26:29.433Z,100851.50
2023-04-22T18:29:33.699Z,100859.50
2023-04-22T18:32:37.272Z,100863.03
2023-04-22T18:35:41.489Z,100854.09
2023-04-22T18:38:44.377Z,100854.97
2023-04-22T18:41:47.234Z,100856.72
2023-04-22T18:44:51.440Z,100848.63
2023-04-22T18:47:54.556Z,100859.19
2023-04-22T18:50:57.966Z,100861.72
2023-04-22T18:54:01.248Z,100865.22
2023-04-22T18:57:04.155Z,100865.19
2023-04-22T19:00:10.133Z,100855.31
2023-04-22T19:03:13.123Z,100857.97
2023-04-22T19:06:16.094Z,100858.84
2023-04-22T19:09:19.459Z,100858.84
2023-04-22T19:12:22.477Z,100858.75
2023-04-22T19:15:26.864Z,100852.53
2023-04-22T19:18:29.731Z,100856.09
2023-04-22T19:21:33.156Z,100855.22
2023-04-22T19:24:36.515Z,100851.69
2023-04-22T19:27:39.403Z,100856.94
2023-04-22T19:30:44.277Z,100845.41
2023-04-22T19:33:47.364Z,100853.31
2023-04-22T19:36:51.245Z,100847.91
2023-04-22T19:39:54.087Z,100854.03
2023-04-22T19:42:58.977Z,100848.69
2023-04-22T19:46:13.282Z,100845.97
2023-04-22T19:49:16.976Z,100847.72
2023-04-22T19:52:23.251Z,100840.59
2023-04-22T19:55:26.636Z,100846.78
2023-04-22T19:58:29.765Z,100839.66
2023-04-22T20:01:35.102Z,100837.91
2023-04-22T20:04:38.546Z,100838.78
2023-04-22T20:07:43.509Z,100826.34
2023-04-22T20:10:48.082Z,100824.50
2023-04-22T20:13:51.609Z,100818.25
2023-04-22T20:16:57.199Z,100814.72
2023-04-22T20:20:01.627Z,100811.13
2023-04-22T20:23:10.393Z,100814.63
2023-04-22T20:26:13.914Z,100813.69
2023-04-22T20:29:18.317Z,100808.38
2023-04-22T20:32:22.794Z,100813.69
2023-04-22T20:35:26.406Z,100811.91
2023-04-22T20:38:30.892Z,100814.56
2023-04-22T20:41:38.707Z,100816.28
2023-04-22T20:44:41.938Z,100809.22
2023-04-22T20:47:46.512Z,100810.06
2023-04-22T20:50:49.701Z,100803.91
2023-04-22T20:53:53.255Z,100801.16
2023-04-22T20:56:57.736Z,100802.03
2023-04-22T21:00:00.659Z,100795.72
2023-04-22T21:03:08.913Z,100793.06
2023-04-22T21:06:12.263Z,100799.25
2023-04-22T21:09:15.470Z,100794.81
2023-04-22T21:12:19.468Z,100793.94
2023-04-22T21:15:22.869Z,100785.06
2023-04-22T21:18:29.184Z,100779.72
2023-04-22T21:21:34.810Z,100779.81
2023-04-22T21:24:38.517Z,100778.94
2023-04-22T21:27:41.965Z,100780.75
2023-04-22T21:30:45.437Z,100779.91
2023-04-22T21:33:49.649Z,100783.50
2023-04-22T21:36:53.130Z,100772.75
2023-04-22T21:39:56.075Z,100777.25
2023-04-22T21:43:00.102Z,100769.25
2023-04-22T21:46:02.991Z,100769.25
2023-04-22T21:49:07.306Z,100769.25
2023-04-22T21:52:10.594Z,100766.72
2023-04-22T21:55:13.728Z,100765.78
2023-04-22T21:58:16.628Z,100766.72
2023-04-22T22:01:19.475Z,100758.72
2023-04-22T22:04:23.830Z,100761.47
2023-04-22T22:07:27.458Z,100763.28
2023-04-22T22:10:30.393Z,100757.94
2023-04-22T22:13:34.047Z,100760.63
2023-04-22T22:16:38.663Z,100757.06
2023-04-22T22:19:42.973Z,100757.94
2023-04-22T22:22:46.887Z,100758.91
2023-04-22T22:25:50.486Z,100755.34
2023-04-22T22:28:53.578Z,100758.00
2023-04-22T22:31:56.470Z,100760.66
2023-04-22T22:35:00.784Z,100754.47
2023-04-22T22:38:03.652Z,100755.34
2023-04-22T22:41:06.544Z,100753.56
2023-04-22T22:44:09.406Z,100753.56
2023-04-22T22:47:12.441Z,100747.28
2023-04-22T22:50:17.823Z,100741.94
2023-04-22T22:53:21.069Z,100741.94
2023-04-22T22:56:23.966Z,100738.34
2023-04-22T22:59:26.794Z,100740.06
2023-04-22T23:02:29.853Z,100734.72
2023-04-22T23:05:34.332Z,100728.53
2023-04-22T23:08:37.232Z,100725.03
2023-04-22T23:11:40.408Z,100727.69
2023-04-22T23:14:43.446Z,100718.75
2023-04-22T23:17:46.576Z,100720.53
2023-04-22T23:20:52.229Z,100717.03
2023-04-22T23:23:56.037Z,100709.09
2023-04-22T23:26:59.338Z,100708.25
2023-04-22T23:30:02.673Z,100704.63
2023-04-22T23:33:05.887Z,100707.28
2023-04-22T23:36:11.347Z,100698.38
2023-04-22T23:39:14.187Z,100699.31
2023-04-22T23:42:17.001Z,100701.97
2023-04-22T23:45:19.803Z,100696.69
2023-04-22T23:48:22.715Z,100694.03
2023-04-22T23:51:28.345Z,100695.91
2023-04-22T23:54:31.629Z,100695.03
2023-04-22T23:57:35.091Z,100686.19
